Time;durP1;ratioP1;P1;durP2;ratioP2;P2;SDS_P1;SDS_P2;PMS_P1;PMS_P2;Temp;Humidity;BMP_temperature;BMP_pressure;BME280_temperature;BME280_humidity;BME280_pressure;Samples;Min_cycle;Max_cycle;Signal;HPM_P1;HPM_P2
2021/07/22 00:00:45;;;;;;;;;23.50;22.75;;;;;;;;5070886;27;52410;-57
2021/07/22 00:03:10;;;;;;;;;19.75;18.75;;;;;;;;5072030;28;50922;-57
2021/07/22 00:05:35;;;;;;;;;21.00;20.00;;;;;;;;5068909;27;51136;-57
2021/07/22 00:08:01;;;;;;;;;20.00;19.25;;;;;;;;5062589;27;50898;-57
2021/07/22 00:10:26;;;;;;;;;21.00;20.00;;;;;;;;5055787;28;51320;-58
2021/07/22 00:12:51;;;;;;;;;20.75;18.75;;;;;;;;5070579;28;51415;-57
2021/07/22 00:15:17;;;;;;;;;19.33;19.33;;;;;;;;5072215;27;51018;-58
2021/07/22 00:17:42;;;;;;;;;20.50;19.50;;;;;;;;5061313;28;51311;-59
2021/07/22 00:20:08;;;;;;;;;19.25;17.00;;;;;;;;5065892;28;51283;-58
2021/07/22 00:22:37;;;;;;;;;19.50;18.75;;;;;;;;5070186;27;51032;-58
2021/07/22 00:25:04;;;;;;;;;20.25;19.25;;;;;;;;5067684;27;50988;-57
2021/07/22 00:27:29;;;;;;;;;17.75;17.75;;;;;;;;5065338;27;51180;-59
2021/07/22 00:29:54;;;;;;;;;18.75;17.00;;;;;;;;5066199;28;50972;-57
2021/07/22 00:32:19;;;;;;;;;20.25;19.25;;;;;;;;5065149;27;51220;-57
2021/07/22 00:34:44;;;;;;;;;20.75;19.50;;;;;;;;5070779;27;51243;-57
2021/07/22 00:37:10;;;;;;;;;22.00;20.50;;;;;;;;5057350;27;51083;-59
2021/07/22 00:39:36;;;;;;;;;20.00;18.00;;;;;;;;5066053;28;52190;-57
2021/07/22 00:42:02;;;;;;;;;22.75;22.50;;;;;;;;5069618;28;50947;-57
2021/07/22 00:44:28;;;;;;;;;20.25;19.00;;;;;;;;5071218;27;51123;-59
2021/07/22 00:46:53;;;;;;;;;23.25;21.00;;;;;;;;5062093;27;51310;-58
2021/07/22 00:49:18;;;;;;;;;20.25;19.00;;;;;;;;5071237;27;52617;-58
2021/07/22 00:51:43;;;;;;;;;19.50;19.25;;;;;;;;5071648;27;50902;-59
2021/07/22 00:54:08;;;;;;;;;20.75;20.75;;;;;;;;5071775;28;51230;-60
2021/07/22 00:56:34;;;;;;;;;24.00;22.25;;;;;;;;5071754;27;50932;-58
2021/07/22 00:59:00;;;;;;;;;21.75;20.50;;;;;;;;5058398;27;51925;-59
2021/07/22 01:01:25;;;;;;;;;21.25;21.25;;;;;;;;5071429;27;51076;-63
2021/07/22 01:03:50;;;;;;;;;19.75;19.00;;;;;;;;5065009;28;51674;-59
2021/07/22 01:06:15;;;;;;;;;22.25;19.75;;;;;;;;5071716;27;50902;-59
2021/07/22 01:08:41;;;;;;;;;21.50;19.50;;;;;;;;5054616;27;52151;-58
2021/07/22 01:11:06;;;;;;;;;14.25;13.25;;;;;;;;5058557;28;51116;-57
2021/07/22 01:13:31;;;;;;;;;22.00;22.00;;;;;;;;5063426;27;51108;-59
2021/07/22 01:15:56;;;;;;;;;21.25;19.00;;;;;;;;5063745;28;51013;-58
2021/07/22 01:18:21;;;;;;;;;23.75;21.75;;;;;;;;5062591;28;51291;-58
2021/07/22 01:20:46;;;;;;;;;21.25;21.00;;;;;;;;5074422;27;51104;-59
2021/07/22 01:23:12;;;;;;;;;23.75;20.00;;;;;;;;5073394;27;51314;-59
2021/07/22 01:25:37;;;;;;;;;22.50;21.75;;;;;;;;5073900;27;51025;-57
2021/07/22 01:28:02;;;;;;;;;19.25;19.00;;;;;;;;5072906;27;51278;-57
2021/07/22 01:30:27;;;;;;;;;24.25;22.75;;;;;;;;5069388;28;51203;-58
2021/07/22 01:32:53;;;;;;;;;20.75;20.00;;;;;;;;5074580;27;51100;-57
2021/07/22 01:35:18;;;;;;;;;23.75;20.75;;;;;;;;5066237;27;51336;-58
2021/07/22 01:37:44;;;;;;;;;20.75;20.75;;;;;;;;5069104;28;52370;-57
2021/07/22 01:40:10;;;;;;;;;23.00;22.25;;;;;;;;5074820;28;50969;-57
2021/07/22 01:42:35;;;;;;;;;22.25;19.50;;;;;;;;5072901;28;51011;-58
2021/07/22 01:45:00;;;;;;;;;19.75;16.75;;;;;;;;5074617;27;51193;-58
2021/07/22 01:47:25;;;;;;;;;22.00;21.00;;;;;;;;5069194;27;51166;-58
2021/07/22 01:49:51;;;;;;;;;22.00;20.25;;;;;;;;5057799;27;51019;-58
2021/07/22 01:52:16;;;;;;;;;21.00;18.25;;;;;;;;5072776;28;51221;-58
2021/07/22 01:54:42;;;;;;;;;20.25;19.00;;;;;;;;5067175;27;51100;-58
2021/07/22 01:57:07;;;;;;;;;19.00;19.00;;;;;;;;5061922;28;51080;-58
2021/07/22 01:59:35;;;;;;;;;22.00;22.00;;;;;;;;5072393;27;51167;-59
2021/07/22 02:02:04;;;;;;;;;18.50;17.75;;;;;;;;5067999;27;51243;-59
2021/07/22 02:04:29;;;;;;;;;19.25;18.00;;;;;;;;5073225;28;51077;-58
2021/07/22 02:06:55;;;;;;;;;23.00;20.75;;;;;;;;5073331;27;51551;-58
2021/07/22 02:09:20;;;;;;;;;21.00;19.50;;;;;;;;5058377;28;50930;-59
2021/07/22 02:11:45;;;;;;;;;20.25;20.00;;;;;;;;5065002;28;50932;-58
2021/07/22 02:14:11;;;;;;;;;19.25;18.50;;;;;;;;5072479;27;51156;-57
2021/07/22 02:16:38;;;;;;;;;21.50;21.00;;;;;;;;5061351;27;52215;-57
2021/07/22 02:19:03;;;;;;;;;20.75;19.75;;;;;;;;5060416;28;51212;-58
2021/07/22 02:21:28;;;;;;;;;20.75;19.25;;;;;;;;5073470;27;50826;-57
2021/07/22 02:23:54;;;;;;;;;22.50;21.50;;;;;;;;5073768;27;50973;-58
2021/07/22 02:26:19;;;;;;;;;24.50;24.00;;;;;;;;5073652;28;50998;-57
2021/07/22 02:28:44;;;;;;;;;23.75;22.75;;;;;;;;5063478;27;51374;-58
2021/07/22 02:31:09;;;;;;;;;23.25;19.50;;;;;;;;5071956;27;51223;-58
2021/07/22 02:33:34;;;;;;;;;20.50;19.50;;;;;;;;5063888;27;51087;-57
2021/07/22 02:35:59;;;;;;;;;21.75;19.25;;;;;;;;5064620;28;51792;-57
2021/07/22 02:38:25;;;;;;;;;17.25;16.25;;;;;;;;5069715;28;51108;-57
2021/07/22 02:40:50;;;;;;;;;22.00;21.25;;;;;;;;5072430;27;51131;-57
2021/07/22 02:43:15;;;;;;;;;23.25;22.25;;;;;;;;5073376;27;51284;-58
2021/07/22 02:45:40;;;;;;;;;16.75;16.00;;;;;;;;5073414;27;52054;-57
2021/07/22 02:48:06;;;;;;;;;20.25;20.00;;;;;;;;5068783;27;51156;-57
2021/07/22 02:50:32;;;;;;;;;23.25;21.00;;;;;;;;5068489;27;51088;-57
2021/07/22 02:52:57;;;;;;;;;20.25;20.00;;;;;;;;5073593;28;51383;-57
2021/07/22 02:55:22;;;;;;;;;19.00;18.00;;;;;;;;5066202;27;51166;-58
2021/07/22 02:57:47;;;;;;;;;22.25;21.75;;;;;;;;5072144;27;51090;-58
2021/07/22 03:00:13;;;;;;;;;21.00;19.25;;;;;;;;5070810;27;50932;-58
2021/07/22 03:02:38;;;;;;;;;20.75;20.00;;;;;;;;5073557;27;51301;-58
2021/07/22 03:05:04;;;;;;;;;21.75;21.75;;;;;;;;5069618;27;52155;-57
2021/07/22 03:07:29;;;;;;;;;22.00;19.25;;;;;;;;5059718;28;50941;-57
2021/07/22 03:09:54;;;;;;;;;19.75;19.25;;;;;;;;5065882;28;51056;-57
2021/07/22 03:12:19;;;;;;;;;22.50;20.25;;;;;;;;5062050;28;50903;-58
2021/07/22 03:14:45;;;;;;;;;23.50;21.00;;;;;;;;5057892;28;52032;-57
2021/07/22 03:17:10;;;;;;;;;23.00;22.50;;;;;;;;5071343;27;50994;-58
2021/07/22 03:19:35;;;;;;;;;20.25;20.00;;;;;;;;5072046;27;51076;-57
2021/07/22 03:22:00;;;;;;;;;21.50;21.25;;;;;;;;5071877;28;51279;-59
2021/07/22 03:24:25;;;;;;;;;21.00;20.00;;;;;;;;5061711;27;51020;-59
2021/07/22 03:26:51;;;;;;;;;24.25;22.50;;;;;;;;5063731;27;52181;-58
2021/07/22 03:29:16;;;;;;;;;21.75;20.00;;;;;;;;5072329;27;50986;-57
2021/07/22 03:31:41;;;;;;;;;21.50;21.00;;;;;;;;5065492;27;51117;-57
2021/07/22 03:34:07;;;;;;;;;20.25;19.25;;;;;;;;5068676;28;51049;-57
2021/07/22 03:36:32;;;;;;;;;20.00;19.50;;;;;;;;5068437;27;50910;-57
2021/07/22 03:38:57;;;;;;;;;21.50;20.50;;;;;;;;5071339;27;51018;-57
2021/07/22 03:41:25;;;;;;;;;24.50;22.25;;;;;;;;5066123;27;50860;-56
2021/07/22 03:43:50;;;;;;;;;19.25;19.00;;;;;;;;5067265;28;51035;-58
2021/07/22 03:46:15;;;;;;;;;24.50;21.50;;;;;;;;5070085;27;51080;-58
2021/07/22 03:48:40;;;;;;;;;20.50;20.00;;;;;;;;5057308;27;51171;-57
2021/07/22 03:51:05;;;;;;;;;23.50;23.25;;;;;;;;5072621;27;51058;-57
2021/07/22 03:53:30;;;;;;;;;21.25;20.75;;;;;;;;5072101;27;52092;-56
2021/07/22 03:55:56;;;;;;;;;21.50;19.75;;;;;;;;5070769;27;51118;-60
2021/07/22 03:58:21;;;;;;;;;22.25;20.75;;;;;;;;5059778;27;51226;-58
2021/07/22 04:00:46;;;;;;;;;20.50;20.25;;;;;;;;5072625;27;50973;-58
2021/07/22 04:03:12;;;;;;;;;21.25;19.50;;;;;;;;5072399;27;52105;-58
2021/07/22 04:05:37;;;;;;;;;23.25;22.25;;;;;;;;5071229;27;51137;-58
2021/07/22 04:08:02;;;;;;;;;23.25;21.75;;;;;;;;5065930;28;51280;-57
2021/07/22 04:10:28;;;;;;;;;20.25;18.75;;;;;;;;5067360;28;51317;-57
2021/07/22 04:13:00;;;;;;;;;23.75;22.25;;;;;;;;5058674;28;51938;-57
2021/07/22 04:15:26;;;;;;;;;23.00;21.25;;;;;;;;5072170;27;50959;-61
2021/07/22 04:17:52;;;;;;;;;22.50;21.25;;;;;;;;5061603;28;51219;-58
2021/07/22 04:20:18;;;;;;;;;24.50;21.75;;;;;;;;5072219;28;51055;-58
2021/07/22 04:22:43;;;;;;;;;26.75;24.25;;;;;;;;5066146;27;52055;-57
2021/07/22 04:25:12;;;;;;;;;22.75;20.50;;;;;;;;5066945;28;51036;-58
2021/07/22 04:27:37;;;;;;;;;25.25;24.50;;;;;;;;5070488;27;51096;-58
2021/07/22 04:30:03;;;;;;;;;19.75;18.75;;;;;;;;5072381;27;51177;-58
2021/07/22 04:32:28;;;;;;;;;19.00;18.00;;;;;;;;5064914;27;51649;-57
2021/07/22 04:34:53;;;;;;;;;23.50;23.25;;;;;;;;5058598;28;51025;-58
2021/07/22 04:37:18;;;;;;;;;24.25;22.75;;;;;;;;5069882;27;51250;-58
2021/07/22 04:39:44;;;;;;;;;20.75;19.25;;;;;;;;5072083;28;51053;-58
2021/07/22 04:42:09;;;;;;;;;21.75;21.25;;;;;;;;5071823;28;51813;-58
2021/07/22 04:44:34;;;;;;;;;24.25;23.00;;;;;;;;5058399;27;51282;-59
2021/07/22 04:46:59;;;;;;;;;20.50;19.50;;;;;;;;5065173;28;51192;-62
2021/07/22 04:49:24;;;;;;;;;22.25;21.50;;;;;;;;5062847;27;51165;-58
2021/07/22 04:51:50;;;;;;;;;26.75;26.50;;;;;;;;5055809;28;51237;-58
2021/07/22 04:54:15;;;;;;;;;24.25;24.00;;;;;;;;5071534;27;51158;-58
2021/07/22 04:56:40;;;;;;;;;24.00;23.50;;;;;;;;5071319;27;51268;-58
2021/07/22 04:59:06;;;;;;;;;23.25;21.50;;;;;;;;5061415;28;51383;-58
2021/07/22 05:01:31;;;;;;;;;19.25;18.00;;;;;;;;5070001;28;51965;-58
2021/07/22 05:03:56;;;;;;;;;28.50;28.50;;;;;;;;5075377;27;51054;-57
2021/07/22 05:06:21;;;;;;;;;25.25;24.50;;;;;;;;5074722;27;50946;-58
2021/07/22 05:08:46;;;;;;;;;25.00;24.00;;;;;;;;5074941;28;51402;-57
2021/07/22 05:11:12;;;;;;;;;22.00;22.00;;;;;;;;5066078;27;51757;-57
2021/07/22 05:13:39;;;;;;;;;24.75;22.75;;;;;;;;5063598;28;51306;-57
2021/07/22 05:16:05;;;;;;;;;26.25;26.00;;;;;;;;5075223;27;51358;-57
2021/07/22 05:18:31;;;;;;;;;26.75;24.50;;;;;;;;5068428;27;51037;-57
2021/07/22 05:20:56;;;;;;;;;28.50;27.50;;;;;;;;5072898;28;51111;-58
2021/07/22 05:23:21;;;;;;;;;26.00;25.50;;;;;;;;5075236;27;50890;-58
2021/07/22 05:25:46;;;;;;;;;21.25;20.50;;;;;;;;5075124;27;50912;-59
2021/07/22 05:28:11;;;;;;;;;25.50;24.50;;;;;;;;5069918;28;51039;-58
2021/07/22 05:30:37;;;;;;;;;25.25;25.00;;;;;;;;5067274;27;52079;-58
2021/07/22 05:33:02;;;;;;;;;22.25;22.25;;;;;;;;5074822;27;51062;-58
2021/07/22 05:35:27;;;;;;;;;27.00;25.00;;;;;;;;5072973;28;50859;-57
2021/07/22 05:37:53;;;;;;;;;30.50;27.50;;;;;;;;5063430;27;51075;-58
2021/07/22 05:40:19;;;;;;;;;25.25;22.75;;;;;;;;5066669;28;53580;-58
2021/07/22 05:42:44;;;;;;;;;22.50;21.75;;;;;;;;5074359;27;50875;-58
2021/07/22 05:45:09;;;;;;;;;23.25;23.25;;;;;;;;5071156;27;50903;-58
2021/07/22 05:47:35;;;;;;;;;22.25;22.25;;;;;;;;5061863;28;51245;-58
2021/07/22 05:50:00;;;;;;;;;18.00;18.00;;;;;;;;5074220;27;51225;-58
2021/07/22 05:52:25;;;;;;;;;24.25;23.50;;;;;;;;5072202;27;51245;-58
2021/07/22 05:54:50;;;;;;;;;23.75;22.50;;;;;;;;5068990;28;50953;-58
2021/07/22 05:57:15;;;;;;;;;24.00;22.50;;;;;;;;5071661;28;51357;-58
2021/07/22 05:59:40;;;;;;;;;24.75;23.00;;;;;;;;5074008;27;52311;-58
2021/07/22 06:02:07;;;;;;;;;27.00;25.00;;;;;;;;5064260;27;51119;-58
2021/07/22 06:04:32;;;;;;;;;21.50;21.25;;;;;;;;5068314;28;51069;-58
2021/07/22 06:06:58;;;;;;;;;21.50;20.50;;;;;;;;5073657;27;51347;-59
2021/07/22 06:09:23;;;;;;;;;22.50;22.00;;;;;;;;5073937;27;52916;-58
2021/07/22 06:11:48;;;;;;;;;20.25;20.00;;;;;;;;5076460;27;51064;-58
2021/07/22 06:14:13;;;;;;;;;24.00;23.75;;;;;;;;5071546;27;51004;-59
2021/07/22 06:16:38;;;;;;;;;24.25;23.25;;;;;;;;5074102;28;51320;-58
2021/07/22 06:19:04;;;;;;;;;23.75;22.25;;;;;;;;5071997;28;54092;-58
2021/07/22 06:21:29;;;;;;;;;21.50;21.50;;;;;;;;5073842;27;51017;-58
2021/07/22 06:23:54;;;;;;;;;18.00;16.50;;;;;;;;5074367;28;51190;-59
2021/07/22 06:26:19;;;;;;;;;21.75;21.25;;;;;;;;5074330;27;50870;-58
2021/07/22 06:28:45;;;;;;;;;24.00;23.00;;;;;;;;5073462;27;51217;-58
2021/07/22 06:31:10;;;;;;;;;23.00;22.75;;;;;;;;5073457;27;50954;-59
2021/07/22 06:33:35;;;;;;;;;25.00;22.00;;;;;;;;5072205;27;50879;-58
2021/07/22 06:36:00;;;;;;;;;23.50;22.50;;;;;;;;5070243;28;51127;-59
2021/07/22 06:38:29;;;;;;;;;18.00;17.25;;;;;;;;5071853;28;53831;-58
2021/07/22 06:40:54;;;;;;;;;20.00;20.00;;;;;;;;5072465;28;50934;-58
2021/07/22 06:43:19;;;;;;;;;19.50;18.00;;;;;;;;5072235;27;51282;-58
2021/07/22 06:45:44;;;;;;;;;24.00;23.50;;;;;;;;5071055;28;51120;-57
2021/07/22 06:48:10;;;;;;;;;26.75;24.25;;;;;;;;5073573;27;51238;-58
2021/07/22 06:50:36;;;;;;;;;22.50;22.00;;;;;;;;5073067;27;51052;-58
2021/07/22 06:53:01;;;;;;;;;23.00;22.25;;;;;;;;5073363;27;51096;-59
2021/07/22 06:55:26;;;;;;;;;25.75;24.25;;;;;;;;5072625;27;50938;-58
2021/07/22 06:57:52;;;;;;;;;25.00;24.00;;;;;;;;5072015;27;52110;-57
2021/07/22 07:00:17;;;;;;;;;18.00;17.75;;;;;;;;5073104;28;51041;-58
2021/07/22 07:02:42;;;;;;;;;23.50;23.50;;;;;;;;5073045;27;51049;-58
2021/07/22 07:05:08;;;;;;;;;19.50;19.50;;;;;;;;5072713;27;50924;-58
2021/07/22 07:07:33;;;;;;;;;24.50;24.25;;;;;;;;5071540;28;53013;-58
2021/07/22 07:09:58;;;;;;;;;24.00;22.50;;;;;;;;5072803;27;51025;-58
2021/07/22 07:12:24;;;;;;;;;18.00;18.00;;;;;;;;5071609;27;51121;-58
2021/07/22 07:14:49;;;;;;;;;22.00;21.25;;;;;;;;5058657;28;50974;-59
2021/07/22 07:17:14;;;;;;;;;23.75;23.00;;;;;;;;5072010;27;51131;-59
2021/07/22 07:19:39;;;;;;;;;23.00;21.75;;;;;;;;5072659;27;51031;-58
2021/07/22 07:22:04;;;;;;;;;24.00;21.50;;;;;;;;5072429;27;50850;-58
2021/07/22 07:24:30;;;;;;;;;22.50;22.00;;;;;;;;5071951;28;51253;-58
2021/07/22 07:26:55;;;;;;;;;23.75;21.75;;;;;;;;5072469;28;51260;-58
2021/07/22 07:29:21;;;;;;;;;20.50;19.75;;;;;;;;5070890;28;51037;-58
2021/07/22 07:31:46;;;;;;;;;19.75;19.00;;;;;;;;5070102;28;51001;-58
2021/07/22 07:34:11;;;;;;;;;22.00;21.75;;;;;;;;5072880;27;51119;-61
2021/07/22 07:36:44;;;;;;;;;23.00;21.75;;;;;;;;5072599;27;51021;-58
2021/07/22 07:39:10;;;;;;;;;21.50;20.00;;;;;;;;5071143;28;50901;-60
2021/07/22 07:41:35;;;;;;;;;17.00;17.00;;;;;;;;5072678;28;50863;-59
2021/07/22 07:44:00;;;;;;;;;21.50;20.75;;;;;;;;5071716;27;51001;-60
2021/07/22 07:46:25;;;;;;;;;21.00;21.00;;;;;;;;5072237;27;52139;-59
2021/07/22 07:48:50;;;;;;;;;19.50;19.50;;;;;;;;5072539;27;50883;-59
2021/07/22 07:51:16;;;;;;;;;19.25;19.25;;;;;;;;5072717;27;51069;-58
2021/07/22 07:53:41;;;;;;;;;19.00;19.00;;;;;;;;5072708;27;51256;-59
2021/07/22 07:56:06;;;;;;;;;20.50;20.00;;;;;;;;5072387;28;52190;-59
2021/07/22 07:58:31;;;;;;;;;20.25;19.25;;;;;;;;5071914;28;51229;-58
2021/07/22 08:00:56;;;;;;;;;19.75;19.75;;;;;;;;5072594;27;51145;-58
2021/07/22 08:03:23;;;;;;;;;17.75;17.75;;;;;;;;5072681;27;51405;-58
2021/07/22 08:05:50;;;;;;;;;18.50;18.00;;;;;;;;5071889;27;51260;-58
2021/07/22 08:08:16;;;;;;;;;17.00;16.50;;;;;;;;5072346;27;51091;-59
2021/07/22 08:10:41;;;;;;;;;17.00;17.00;;;;;;;;5072584;27;51115;-59
2021/07/22 08:13:10;;;;;;;;;18.00;17.75;;;;;;;;5071981;27;51025;-60
2021/07/22 08:15:36;;;;;;;;;18.25;17.75;;;;;;;;5061770;28;51758;-59
2021/07/22 08:18:01;;;;;;;;;15.75;15.75;;;;;;;;5072101;27;51090;-58
2021/07/22 08:20:26;;;;;;;;;18.25;18.25;;;;;;;;5071954;27;51124;-58
2021/07/22 08:22:52;;;;;;;;;18.00;18.00;;;;;;;;5072024;27;51341;-58
2021/07/22 08:25:17;;;;;;;;;18.75;18.75;;;;;;;;5071432;28;52034;-58
2021/07/22 08:27:42;;;;;;;;;16.75;16.75;;;;;;;;5071477;27;50867;-59
2021/07/22 08:30:07;;;;;;;;;15.50;15.25;;;;;;;;5074163;27;50869;-59
2021/07/22 08:32:35;;;;;;;;;17.75;16.75;;;;;;;;5075897;27;51413;-59
2021/07/22 08:35:00;;;;;;;;;17.50;17.25;;;;;;;;5072142;27;51099;-58
2021/07/22 08:37:26;;;;;;;;;18.50;18.25;;;;;;;;5067914;28;51277;-58
2021/07/22 08:39:54;;;;;;;;;17.50;17.25;;;;;;;;5075306;28;51028;-58
2021/07/22 08:42:20;;;;;;;;;16.50;15.75;;;;;;;;5074900;27;51314;-58
2021/07/22 08:44:45;;;;;;;;;15.00;15.00;;;;;;;;5075338;27;52337;-57
2021/07/22 08:47:11;;;;;;;;;18.00;17.75;;;;;;;;5073985;28;51077;-59
2021/07/22 08:49:37;;;;;;;;;19.75;19.25;;;;;;;;5074217;27;51175;-59
2021/07/22 08:52:07;;;;;;;;;18.00;18.00;;;;;;;;5074132;28;51512;-58
2021/07/22 08:54:32;;;;;;;;;17.75;17.25;;;;;;;;5075069;27;52202;-58
2021/07/22 08:56:59;;;;;;;;;18.25;18.25;;;;;;;;5074657;27;51188;-60
2021/07/22 08:59:25;;;;;;;;;17.75;17.25;;;;;;;;5075282;27;50965;-58
2021/07/22 09:01:53;;;;;;;;;17.25;17.00;;;;;;;;5075410;27;50874;-59
2021/07/22 09:04:19;;;;;;;;;14.00;14.00;;;;;;;;5074810;28;51443;-59
2021/07/22 09:06:44;;;;;;;;;18.25;17.75;;;;;;;;5074310;28;50937;-59
2021/07/22 09:09:13;;;;;;;;;16.50;16.50;;;;;;;;5073840;28;51125;-58
2021/07/22 09:11:59;;;;;;;;;20.50;19.50;;;;;;;;5073671;27;51199;-59
2021/07/22 09:14:25;;;;;;;;;18.50;18.50;;;;;;;;5070252;27;52132;-57
2021/07/22 09:16:51;;;;;;;;;17.25;16.50;;;;;;;;5063498;28;51000;-59
2021/07/22 09:19:36;;;;;;;;;19.25;19.25;;;;;;;;5074462;27;51206;-59
2021/07/22 09:22:02;;;;;;;;;18.50;17.00;;;;;;;;5075032;27;51045;-59
2021/07/22 09:24:27;;;;;;;;;21.25;18.75;;;;;;;;5072381;28;51406;-59
2021/07/22 09:26:53;;;;;;;;;15.75;15.75;;;;;;;;5073223;28;50988;-59
2021/07/22 09:29:18;;;;;;;;;20.25;19.50;;;;;;;;5074618;27;50916;-60
2021/07/22 09:31:45;;;;;;;;;17.50;17.50;;;;;;;;5075135;27;50856;-58
2021/07/22 09:34:22;;;;;;;;;13.50;13.50;;;;;;;;5074101;28;51918;-58
2021/07/22 09:36:48;;;;;;;;;18.00;17.75;;;;;;;;5073925;27;50927;-59
2021/07/22 09:39:19;;;;;;;;;15.00;15.00;;;;;;;;5074375;27;51232;-59
2021/07/22 09:41:45;;;;;;;;;16.25;16.25;;;;;;;;5073037;27;51162;-59
2021/07/22 09:44:37;;;;;;;;;14.50;14.50;;;;;;;;5073759;28;52139;-59
2021/07/22 09:47:03;;;;;;;;;17.00;16.75;;;;;;;;5072851;27;51204;-59
2021/07/22 09:49:29;;;;;;;;;17.50;15.50;;;;;;;;5074107;27;51062;-58
2021/07/22 09:51:58;;;;;;;;;17.00;17.00;;;;;;;;5073968;27;51338;-58
2021/07/22 09:54:31;;;;;;;;;18.50;18.50;;;;;;;;5073822;27;51912;-59
2021/07/22 09:56:56;;;;;;;;;16.75;16.50;;;;;;;;5072283;28;51116;-58
2021/07/22 09:59:21;;;;;;;;;16.50;16.00;;;;;;;;5073998;28;51080;-59
2021/07/22 10:01:48;;;;;;;;;16.25;16.25;;;;;;;;5074161;27;51339;-58
2021/07/22 10:04:14;;;;;;;;;15.00;15.00;;;;;;;;5073353;27;51190;-60
2021/07/22 10:06:43;;;;;;;;;14.00;13.00;;;;;;;;5073276;27;50904;-58
2021/07/22 10:09:08;;;;;;;;;14.50;14.25;;;;;;;;5072119;28;51113;-58
2021/07/22 10:11:34;;;;;;;;;17.50;16.75;;;;;;;;5073196;27;50975;-59
2021/07/22 10:14:01;;;;;;;;;15.00;14.75;;;;;;;;5073047;27;51991;-59
2021/07/22 10:16:26;;;;;;;;;15.75;15.25;;;;;;;;5057727;27;51076;-59
2021/07/22 10:18:54;;;;;;;;;18.00;17.50;;;;;;;;5072061;28;50997;-58
2021/07/22 10:21:20;;;;;;;;;17.00;17.00;;;;;;;;5072276;28;51185;-60
2021/07/22 10:23:46;;;;;;;;;15.25;13.75;;;;;;;;5073168;27;51750;-59
2021/07/22 10:26:11;;;;;;;;;15.75;15.75;;;;;;;;5073302;27;51050;-60
2021/07/22 10:28:37;;;;;;;;;14.25;14.25;;;;;;;;5073056;28;51762;-60
2021/07/22 10:31:05;;;;;;;;;14.25;14.25;;;;;;;;5074106;27;50875;-58
2021/07/22 10:33:33;;;;;;;;;15.00;15.00;;;;;;;;5073130;27;51776;-58
2021/07/22 10:35:59;;;;;;;;;13.25;13.25;;;;;;;;5069966;27;51146;-58
2021/07/22 10:38:40;;;;;;;;;18.25;16.75;;;;;;;;5073145;27;50952;-58
2021/07/22 10:41:05;;;;;;;;;16.25;15.50;;;;;;;;5073238;27;51000;-59
2021/07/22 10:43:37;;;;;;;;;15.75;15.75;;;;;;;;5072500;27;51000;-58
2021/07/22 10:46:03;;;;;;;;;15.50;15.50;;;;;;;;5072658;27;50937;-57
2021/07/22 10:48:28;;;;;;;;;14.00;13.50;;;;;;;;5072810;27;50995;-59
2021/07/22 10:50:54;;;;;;;;;16.00;16.00;;;;;;;;5072649;27;51156;-59
2021/07/22 10:53:36;;;;;;;;;15.00;15.00;;;;;;;;5072112;27;52256;-58
2021/07/22 10:56:01;;;;;;;;;17.25;15.75;;;;;;;;5072351;27;50928;-59
2021/07/22 10:58:35;;;;;;;;;14.50;13.75;;;;;;;;5072764;28;50898;-59
2021/07/22 11:01:00;;;;;;;;;15.50;15.00;;;;;;;;5073010;27;50898;-59
2021/07/22 11:03:38;;;;;;;;;16.25;16.25;;;;;;;;5072502;28;52174;-59
2021/07/22 11:06:07;;;;;;;;;15.50;15.50;;;;;;;;5072676;27;50910;-59
2021/07/22 11:08:33;;;;;;;;;17.25;17.00;;;;;;;;5072453;27;51069;-58
2021/07/22 11:11:02;;;;;;;;;16.25;16.25;;;;;;;;5071810;27;50929;-57
2021/07/22 11:13:34;;;;;;;;;13.50;13.25;;;;;;;;5069953;28;53801;-59
2021/07/22 11:16:01;;;;;;;;;14.50;14.00;;;;;;;;5066751;27;51206;-59
2021/07/22 11:18:44;;;;;;;;;10.50;10.00;;;;;;;;5061765;28;50974;-58
2021/07/22 11:21:10;;;;;;;;;16.50;16.00;;;;;;;;5072008;27;51207;-59
2021/07/22 11:23:35;;;;;;;;;15.75;15.00;;;;;;;;5071418;27;51821;-58
2021/07/22 11:26:01;;;;;;;;;15.50;15.00;;;;;;;;5072192;27;50954;-59
2021/07/22 11:28:27;;;;;;;;;16.50;15.25;;;;;;;;5072089;28;50963;-59
2021/07/22 11:31:08;;;;;;;;;13.75;13.25;;;;;;;;5071878;28;50951;-58
2021/07/22 11:33:39;;;;;;;;;15.75;14.00;;;;;;;;5071938;27;51037;-59
2021/07/22 11:36:10;;;;;;;;;16.25;15.00;;;;;;;;5072059;28;51104;-59
2021/07/22 11:38:35;;;;;;;;;16.25;15.50;;;;;;;;5072168;27;50955;-59
2021/07/22 11:41:01;;;;;;;;;14.75;14.75;;;;;;;;5071775;27;51378;-58
2021/07/22 11:43:38;;;;;;;;;16.00;15.75;;;;;;;;5070212;27;52015;-59
2021/07/22 11:46:06;;;;;;;;;14.50;14.25;;;;;;;;5071755;27;50895;-59
2021/07/22 11:48:31;;;;;;;;;17.50;17.50;;;;;;;;5071973;27;51141;-63
2021/07/22 11:51:01;;;;;;;;;14.25;14.25;;;;;;;;5071722;28;51158;-58
2021/07/22 11:53:26;;;;;;;;;16.50;16.50;;;;;;;;5069892;28;52423;-59
2021/07/22 11:55:52;;;;;;;;;15.75;14.75;;;;;;;;5071910;27;51071;-59
2021/07/22 11:58:17;;;;;;;;;17.00;16.50;;;;;;;;5071549;27;51580;-58
2021/07/22 12:00:42;;;;;;;;;14.25;14.25;;;;;;;;5072027;27;50856;-58
2021/07/22 12:03:08;;;;;;;;;14.00;13.75;;;;;;;;5071281;27;51066;-59
2021/07/22 12:05:33;;;;;;;;;14.75;14.75;;;;;;;;5070781;28;51300;-59
2021/07/22 12:08:15;;;;;;;;;15.00;15.00;;;;;;;;5071609;27;51088;-59
2021/07/22 12:10:41;;;;;;;;;14.25;14.25;;;;;;;;5071534;27;50883;-59
2021/07/22 12:13:08;;;;;;;;;15.00;15.00;;;;;;;;5070490;27;52784;-60
2021/07/22 12:15:34;;;;;;;;;17.00;17.00;;;;;;;;5071438;27;50930;-58
2021/07/22 12:18:00;;;;;;;;;13.00;12.25;;;;;;;;5056650;27;51319;-58
2021/07/22 12:20:25;;;;;;;;;16.75;16.50;;;;;;;;5070509;27;51083;-58
2021/07/22 12:22:50;;;;;;;;;14.75;12.75;;;;;;;;5070844;27;51226;-59
2021/07/22 12:25:16;;;;;;;;;17.25;17.25;;;;;;;;5070777;27;51084;-58
2021/07/22 12:27:57;;;;;;;;;17.75;16.75;;;;;;;;5070767;27;51107;-57
2021/07/22 12:30:24;;;;;;;;;17.50;16.75;;;;;;;;5071543;27;51044;-59
2021/07/22 12:32:52;;;;;;;;;17.25;17.25;;;;;;;;5070659;27;51226;-59
2021/07/22 12:35:29;;;;;;;;;16.75;16.75;;;;;;;;5071513;27;51111;-58
2021/07/22 12:37:55;;;;;;;;;17.50;16.75;;;;;;;;5067757;27;51300;-58
2021/07/22 12:40:30;;;;;;;;;18.00;17.25;;;;;;;;5069880;28;50984;-57
2021/07/22 12:42:56;;;;;;;;;18.50;18.00;;;;;;;;5068799;28;52294;-58
2021/07/22 12:45:21;;;;;;;;;17.00;15.50;;;;;;;;5070132;27;50904;-58
2021/07/22 12:47:47;;;;;;;;;15.75;15.25;;;;;;;;5071552;27;51216;-59
2021/07/22 12:50:27;;;;;;;;;20.00;19.75;;;;;;;;5071845;27;50778;-59
2021/07/22 12:52:52;;;;;;;;;15.75;15.00;;;;;;;;5071376;27;50980;-60
2021/07/22 12:55:27;;;;;;;;;15.75;15.75;;;;;;;;5071047;27;51257;-57
2021/07/22 12:57:52;;;;;;;;;19.00;17.50;;;;;;;;5069400;28;51194;-58
2021/07/22 13:00:20;;;;;;;;;13.00;13.00;;;;;;;;5070823;27;51382;-59
2021/07/22 13:02:54;;;;;;;;;16.50;15.75;;;;;;;;5069642;28;52174;-58
2021/07/22 13:05:20;;;;;;;;;16.25;16.00;;;;;;;;5070474;27;51032;-59
2021/07/22 13:07:45;;;;;;;;;16.25;16.25;;;;;;;;5070875;27;51458;-58
2021/07/22 13:10:10;;;;;;;;;13.75;13.75;;;;;;;;5071089;28;50869;-59
2021/07/22 13:12:36;;;;;;;;;18.75;16.50;;;;;;;;5070176;28;52390;-59
2021/07/22 13:15:01;;;;;;;;;13.67;13.67;;;;;;;;5070961;27;51017;-58
2021/07/22 13:17:27;;;;;;;;;12.67;12.67;;;;;;;;5068147;27;51218;-58
2021/07/22 13:19:52;;;;;;;;;16.33;15.00;;;;;;;;5064662;28;51005;-59
2021/07/22 13:22:17;;;;;;;;;16.25;16.25;;;;;;;;5073671;27;51800;-58
2021/07/22 13:24:48;;;;;;;;;16.00;16.00;;;;;;;;5073830;27;50990;-59
2021/07/22 13:27:14;;;;;;;;;17.00;16.25;;;;;;;;5074200;27;51216;-58
2021/07/22 13:29:39;;;;;;;;;15.00;14.00;;;;;;;;5074736;27;51053;-59
2021/07/22 13:32:07;;;;;;;;;15.25;14.25;;;;;;;;5074126;28;51202;-58
2021/07/22 13:34:33;;;;;;;;;15.25;15.00;;;;;;;;5073413;27;51009;-58
2021/07/22 13:36:58;;;;;;;;;17.00;16.00;;;;;;;;5074203;27;51159;-60
2021/07/22 13:39:23;;;;;;;;;14.00;14.00;;;;;;;;5074863;27;51393;-58
2021/07/22 13:41:48;;;;;;;;;16.00;14.75;;;;;;;;5073552;27;52295;-59
2021/07/22 13:44:13;;;;;;;;;11.50;11.50;;;;;;;;5074503;27;51080;-59
2021/07/22 13:46:39;;;;;;;;;14.00;13.67;;;;;;;;5074154;27;50946;-58
2021/07/22 13:49:04;;;;;;;;;16.33;15.33;;;;;;;;5074359;27;50890;-59
2021/07/22 13:51:29;;;;;;;;;15.33;15.33;;;;;;;;5073556;27;51050;-59
2021/07/22 13:53:55;;;;;;;;;12.00;12.00;;;;;;;;5074001;27;50994;-59
2021/07/22 13:56:20;;;;;;;;;12.50;12.50;;;;;;;;5072163;28;51047;-59
2021/07/22 13:58:45;;;;;;;;;18.50;18.00;;;;;;;;5073767;27;50978;-59
2021/07/22 14:01:11;;;;;;;;;14.67;14.67;;;;;;;;5073612;27;51103;-59
2021/07/22 14:03:36;;;;;;;;;14.00;14.00;;;;;;;;5074204;27;51064;-58
2021/07/22 14:06:04;;;;;;;;;15.67;15.67;;;;;;;;5073926;27;51094;-59
2021/07/22 14:08:29;;;;;;;;;16.00;16.00;;;;;;;;5073409;27;51047;-59
2021/07/22 14:10:54;;;;;;;;;14.75;14.50;;;;;;;;5073561;27;51457;-59